sensor_id;sensor_type;location;lat;lon;timestamp;temperature;humidity
42979;DHT22;28616;44.746;19.678;2022-12-11T00:01:10;5.40;99.90
42979;DHT22;28616;44.746;19.678;2022-12-11T00:03:36;5.40;99.90
42979;DHT22;28616;44.746;19.678;2022-12-11T00:06:11;5.30;99.90
42979;DHT22;28616;44.746;19.678;2022-12-11T00:08:38;5.40;99.90
42979;DHT22;28616;44.746;19.678;2022-12-11T00:11:06;5.30;99.90
42979;DHT22;28616;44.746;19.678;2022-12-11T00:13:32;5.30;99.90
42979;DHT22;28616;44.746;19.678;2022-12-11T00:15:58;5.30;99.90
42979;DHT22;28616;44.746;19.678;2022-12-11T00:18:24;5.30;99.90
42979;DHT22;28616;44.746;19.678;2022-12-11T00:20:50;5.30;99.90
42979;DHT22;28616;44.746;19.678;2022-12-11T00:23:16;5.30;99.90
42979;DHT22;28616;44.746;19.678;2022-12-11T00:25:43;5.30;99.90
42979;DHT22;28616;44.746;19.678;2022-12-11T00:28:10;5.20;99.90
42979;DHT22;28616;44.746;19.678;2022-12-11T00:30:41;5.20;99.90
42979;DHT22;28616;44.746;19.678;2022-12-11T00:33:08;5.10;99.90
42979;DHT22;28616;44.746;19.678;2022-12-11T00:35:38;5.10;99.90
42979;DHT22;28616;44.746;19.678;2022-12-11T00:38:04;5.10;99.90
42979;DHT22;28616;44.746;19.678;2022-12-11T00:40:33;5.10;99.90
42979;DHT22;28616;44.746;19.678;2022-12-11T00:42:59;5.10;99.90
42979;DHT22;28616;44.746;19.678;2022-12-11T00:45:24;5.00;99.90
42979;DHT22;28616;44.746;19.678;2022-12-11T00:47:50;5.00;99.90
42979;DHT22;28616;44.746;19.678;2022-12-11T00:50:16;5.00;99.90
42979;DHT22;28616;44.746;19.678;2022-12-11T00:52:42;5.00;99.90
42979;DHT22;28616;44.746;19.678;2022-12-11T00:55:07;5.00;99.90
42979;DHT22;28616;44.746;19.678;2022-12-11T00:57:33;5.00;99.90
42979;DHT22;28616;44.746;19.678;2022-12-11T00:59:59;4.90;99.90
42979;DHT22;28616;44.746;19.678;2022-12-11T01:02:25;4.90;99.90
42979;DHT22;28616;44.746;19.678;2022-12-11T01:04:51;4.90;99.90
42979;DHT22;28616;44.746;19.678;2022-12-11T01:07:16;4.90;99.90
42979;DHT22;28616;44.746;19.678;2022-12-11T01:09:42;4.90;99.90
42979;DHT22;28616;44.746;19.678;2022-12-11T01:12:26;4.90;99.90
42979;DHT22;28616;44.746;19.678;2022-12-11T01:14:53;4.90;99.90
42979;DHT22;28616;44.746;19.678;2022-12-11T01:17:19;5.00;99.90
42979;DHT22;28616;44.746;19.678;2022-12-11T01:19:45;5.00;99.90
42979;DHT22;28616;44.746;19.678;2022-12-11T01:22:10;5.00;99.90
42979;DHT22;28616;44.746;19.678;2022-12-11T01:24:36;5.00;99.90
42979;DHT22;28616;44.746;19.678;2022-12-11T01:27:03;5.00;99.90
42979;DHT22;28616;44.746;19.678;2022-12-11T01:29:28;5.00;99.90
42979;DHT22;28616;44.746;19.678;2022-12-11T01:31:54;5.00;99.90
42979;DHT22;28616;44.746;19.678;2022-12-11T01:34:20;4.90;99.90
42979;DHT22;28616;44.746;19.678;2022-12-11T01:36:46;5.00;99.90
42979;DHT22;28616;44.746;19.678;2022-12-11T01:39:12;4.90;99.90
42979;DHT22;28616;44.746;19.678;2022-12-11T01:41:37;4.90;99.90
42979;DHT22;28616;44.746;19.678;2022-12-11T01:46:41;4.80;99.90
42979;DHT22;28616;44.746;19.678;2022-12-11T01:49:10;4.80;99.90
42979;DHT22;28616;44.746;19.678;2022-12-11T01:51:41;4.80;99.90
42979;DHT22;28616;44.746;19.678;2022-12-11T01:54:11;4.70;99.90
42979;DHT22;28616;44.746;19.678;2022-12-11T01:56:40;4.70;99.90
42979;DHT22;28616;44.746;19.678;2022-12-11T01:59:08;4.60;99.90
42979;DHT22;28616;44.746;19.678;2022-12-11T02:01:45;4.50;99.90
42979;DHT22;28616;44.746;19.678;2022-12-11T02:04:12;4.50;99.90
42979;DHT22;28616;44.746;19.678;2022-12-11T02:06:41;4.50;99.90
42979;DHT22;28616;44.746;19.678;2022-12-11T02:09:17;4.40;99.90
42979;DHT22;28616;44.746;19.678;2022-12-11T02:17:03;4.30;99.90
42979;DHT22;28616;44.746;19.678;2022-12-11T02:22:10;4.20;99.90
42979;DHT22;28616;44.746;19.678;2022-12-11T02:27:47;4.30;99.90
42979;DHT22;28616;44.746;19.678;2022-12-11T02:30:18;4.20;99.90
42979;DHT22;28616;44.746;19.678;2022-12-11T02:32:53;4.20;99.90
42979;DHT22;28616;44.746;19.678;2022-12-11T02:35:32;4.20;99.90
42979;DHT22;28616;44.746;19.678;2022-12-11T02:41:03;4.20;99.90
42979;DHT22;28616;44.746;19.678;2022-12-11T02:43:31;4.20;99.90
42979;DHT22;28616;44.746;19.678;2022-12-11T02:45:59;4.20;99.90
42979;DHT22;28616;44.746;19.678;2022-12-11T02:48:26;4.20;99.90
42979;DHT22;28616;44.746;19.678;2022-12-11T02:50:55;4.20;99.90
42979;DHT22;28616;44.746;19.678;2022-12-11T02:53:25;4.20;99.90
42979;DHT22;28616;44.746;19.678;2022-12-11T02:55:58;4.10;99.90
42979;DHT22;28616;44.746;19.678;2022-12-11T02:58:30;4.10;99.90
42979;DHT22;28616;44.746;19.678;2022-12-11T03:00:57;4.10;99.90
42979;DHT22;28616;44.746;19.678;2022-12-11T03:03:23;4.10;99.90
42979;DHT22;28616;44.746;19.678;2022-12-11T03:05:49;4.10;99.90
42979;DHT22;28616;44.746;19.678;2022-12-11T03:08:14;4.10;99.90
42979;DHT22;28616;44.746;19.678;2022-12-11T03:10:42;4.10;99.90
42979;DHT22;28616;44.746;19.678;2022-12-11T03:13:08;4.10;99.90
42979;DHT22;28616;44.746;19.678;2022-12-11T03:18:42;4.00;99.90
42979;DHT22;28616;44.746;19.678;2022-12-11T03:21:35;4.00;99.90
42979;DHT22;28616;44.746;19.678;2022-12-11T03:24:45;4.00;99.90
42979;DHT22;28616;44.746;19.678;2022-12-11T03:26:57;4.00;99.90
42979;DHT22;28616;44.746;19.678;2022-12-11T03:29:30;4.00;99.90
42979;DHT22;28616;44.746;19.678;2022-12-11T03:34:53;3.90;99.90
42979;DHT22;28616;44.746;19.678;2022-12-11T03:37:20;3.90;99.90
42979;DHT22;28616;44.746;19.678;2022-12-11T03:39:50;3.90;99.90
42979;DHT22;28616;44.746;19.678;2022-12-11T03:42:18;3.80;99.90
42979;DHT22;28616;44.746;19.678;2022-12-11T03:44:48;3.80;99.90
42979;DHT22;28616;44.746;19.678;2022-12-11T03:47:18;3.70;99.90
42979;DHT22;28616;44.746;19.678;2022-12-11T03:49:47;3.70;99.90
42979;DHT22;28616;44.746;19.678;2022-12-11T03:52:14;3.70;99.90
42979;DHT22;28616;44.746;19.678;2022-12-11T03:54:42;3.60;99.90
42979;DHT22;28616;44.746;19.678;2022-12-11T03:57:10;3.60;99.90
42979;DHT22;28616;44.746;19.678;2022-12-11T03:59:38;3.60;99.90
42979;DHT22;28616;44.746;19.678;2022-12-11T04:02:03;3.60;99.90
42979;DHT22;28616;44.746;19.678;2022-12-11T04:04:40;3.60;99.90
42979;DHT22;28616;44.746;19.678;2022-12-11T04:07:06;3.50;99.90
42979;DHT22;28616;44.746;19.678;2022-12-11T04:09:32;3.40;99.90
42979;DHT22;28616;44.746;19.678;2022-12-11T04:11:58;3.50;99.90
42979;DHT22;28616;44.746;19.678;2022-12-11T04:14:24;3.50;99.90
42979;DHT22;28616;44.746;19.678;2022-12-11T04:17:09;3.50;99.90
42979;DHT22;28616;44.746;19.678;2022-12-11T04:19:34;3.50;99.90
42979;DHT22;28616;44.746;19.678;2022-12-11T04:22:18;3.50;99.90
42979;DHT22;28616;44.746;19.678;2022-12-11T04:25:05;3.50;99.90
42979;DHT22;28616;44.746;19.678;2022-12-11T04:27:31;3.50;99.90
42979;DHT22;28616;44.746;19.678;2022-12-11T04:30:23;3.50;99.90
42979;DHT22;28616;44.746;19.678;2022-12-11T04:32:50;3.50;99.90
42979;DHT22;28616;44.746;19.678;2022-12-11T04:35:16;3.40;99.90
42979;DHT22;28616;44.746;19.678;2022-12-11T04:37:42;3.40;99.90
42979;DHT22;28616;44.746;19.678;2022-12-11T04:40:11;3.40;99.90
42979;DHT22;28616;44.746;19.678;2022-12-11T04:42:37;3.30;99.90
42979;DHT22;28616;44.746;19.678;2022-12-11T04:45:04;3.30;99.90
42979;DHT22;28616;44.746;19.678;2022-12-11T04:47:30;3.30;99.90
42979;DHT22;28616;44.746;19.678;2022-12-11T04:49:56;3.30;99.90
42979;DHT22;28616;44.746;19.678;2022-12-11T04:52:22;3.20;99.90
42979;DHT22;28616;44.746;19.678;2022-12-11T04:54:47;3.30;99.90
42979;DHT22;28616;44.746;19.678;2022-12-11T04:57:13;3.30;99.90
42979;DHT22;28616;44.746;19.678;2022-12-11T04:59:39;3.30;99.90
42979;DHT22;28616;44.746;19.678;2022-12-11T05:02:05;3.30;99.90
42979;DHT22;28616;44.746;19.678;2022-12-11T05:04:32;3.20;99.90
42979;DHT22;28616;44.746;19.678;2022-12-11T05:06:58;3.20;99.90
42979;DHT22;28616;44.746;19.678;2022-12-11T05:09:24;3.20;99.90
42979;DHT22;28616;44.746;19.678;2022-12-11T05:11:52;3.20;99.90
42979;DHT22;28616;44.746;19.678;2022-12-11T05:14:17;3.20;99.90
42979;DHT22;28616;44.746;19.678;2022-12-11T05:16:44;3.20;99.90
42979;DHT22;28616;44.746;19.678;2022-12-11T05:19:09;3.20;99.90
42979;DHT22;28616;44.746;19.678;2022-12-11T05:21:35;3.20;99.90
42979;DHT22;28616;44.746;19.678;2022-12-11T05:24:01;3.20;99.90
42979;DHT22;28616;44.746;19.678;2022-12-11T05:26:28;3.20;99.90
42979;DHT22;28616;44.746;19.678;2022-12-11T05:28:54;3.20;99.90
42979;DHT22;28616;44.746;19.678;2022-12-11T05:31:25;3.20;99.90
42979;DHT22;28616;44.746;19.678;2022-12-11T05:33:52;3.20;99.90
42979;DHT22;28616;44.746;19.678;2022-12-11T05:36:24;3.30;99.90
42979;DHT22;28616;44.746;19.678;2022-12-11T05:38:51;3.30;99.90
42979;DHT22;28616;44.746;19.678;2022-12-11T05:41:20;3.20;99.90
42979;DHT22;28616;44.746;19.678;2022-12-11T05:43:46;3.20;99.90
42979;DHT22;28616;44.746;19.678;2022-12-11T05:46:24;3.30;99.90
42979;DHT22;28616;44.746;19.678;2022-12-11T05:48:59;3.20;99.90
42979;DHT22;28616;44.746;19.678;2022-12-11T05:51:26;3.20;99.90
42979;DHT22;28616;44.746;19.678;2022-12-11T05:53:52;3.20;99.90
42979;DHT22;28616;44.746;19.678;2022-12-11T05:56:21;3.20;99.90
42979;DHT22;28616;44.746;19.678;2022-12-11T05:58:47;3.20;99.90
42979;DHT22;28616;44.746;19.678;2022-12-11T06:01:38;3.20;99.90
42979;DHT22;28616;44.746;19.678;2022-12-11T06:04:06;3.20;99.90
42979;DHT22;28616;44.746;19.678;2022-12-11T06:06:33;3.30;99.90
42979;DHT22;28616;44.746;19.678;2022-12-11T06:08:59;3.30;99.90
42979;DHT22;28616;44.746;19.678;2022-12-11T06:11:27;3.30;99.90
42979;DHT22;28616;44.746;19.678;2022-12-11T06:13:54;3.30;99.90
42979;DHT22;28616;44.746;19.678;2022-12-11T06:16:21;3.30;99.90
42979;DHT22;28616;44.746;19.678;2022-12-11T06:18:47;3.30;99.90
42979;DHT22;28616;44.746;19.678;2022-12-11T06:21:18;3.30;99.90
42979;DHT22;28616;44.746;19.678;2022-12-11T06:23:45;3.30;99.90
42979;DHT22;28616;44.746;19.678;2022-12-11T06:26:12;3.20;99.90
42979;DHT22;28616;44.746;19.678;2022-12-11T06:28:38;3.30;99.90
42979;DHT22;28616;44.746;19.678;2022-12-11T06:31:05;3.30;99.90
42979;DHT22;28616;44.746;19.678;2022-12-11T06:33:31;3.30;99.90
42979;DHT22;28616;44.746;19.678;2022-12-11T06:36:05;3.20;99.90
42979;DHT22;28616;44.746;19.678;2022-12-11T06:38:31;3.20;99.90
42979;DHT22;28616;44.746;19.678;2022-12-11T06:41:04;3.20;99.90
42979;DHT22;28616;44.746;19.678;2022-12-11T06:43:32;3.20;99.90
42979;DHT22;28616;44.746;19.678;2022-12-11T06:45:58;3.10;99.90
42979;DHT22;28616;44.746;19.678;2022-12-11T06:48:24;3.20;99.90
42979;DHT22;28616;44.746;19.678;2022-12-11T06:50:50;3.20;99.90
42979;DHT22;28616;44.746;19.678;2022-12-11T06:53:16;3.20;99.90
42979;DHT22;28616;44.746;19.678;2022-12-11T06:55:42;3.20;99.90
42979;DHT22;28616;44.746;19.678;2022-12-11T06:58:09;3.30;99.90
42979;DHT22;28616;44.746;19.678;2022-12-11T07:00:37;3.20;99.90
42979;DHT22;28616;44.746;19.678;2022-12-11T07:03:03;3.30;99.90
42979;DHT22;28616;44.746;19.678;2022-12-11T07:05:30;3.30;99.90
42979;DHT22;28616;44.746;19.678;2022-12-11T07:07:56;3.30;99.90
42979;DHT22;28616;44.746;19.678;2022-12-11T07:10:22;3.30;99.90
42979;DHT22;28616;44.746;19.678;2022-12-11T07:12:51;3.30;99.90
42979;DHT22;28616;44.746;19.678;2022-12-11T07:15:17;3.40;99.90
42979;DHT22;28616;44.746;19.678;2022-12-11T07:17:43;3.40;99.90
42979;DHT22;28616;44.746;19.678;2022-12-11T07:20:09;3.40;99.90
42979;DHT22;28616;44.746;19.678;2022-12-11T07:22:35;3.40;99.90
42979;DHT22;28616;44.746;19.678;2022-12-11T07:25:01;3.40;99.90
42979;DHT22;28616;44.746;19.678;2022-12-11T07:27:28;3.40;99.90
42979;DHT22;28616;44.746;19.678;2022-12-11T07:29:54;3.50;99.90
42979;DHT22;28616;44.746;19.678;2022-12-11T07:32:21;3.40;99.90
42979;DHT22;28616;44.746;19.678;2022-12-11T07:34:50;3.40;99.90
42979;DHT22;28616;44.746;19.678;2022-12-11T07:37:16;3.40;99.90
42979;DHT22;28616;44.746;19.678;2022-12-11T07:39:43;3.40;99.90
42979;DHT22;28616;44.746;19.678;2022-12-11T07:42:09;3.40;99.90
42979;DHT22;28616;44.746;19.678;2022-12-11T07:44:35;3.40;99.90
42979;DHT22;28616;44.746;19.678;2022-12-11T07:47:01;3.50;99.90
42979;DHT22;28616;44.746;19.678;2022-12-11T07:49:27;3.50;99.90
42979;DHT22;28616;44.746;19.678;2022-12-11T07:51:53;3.50;99.90
42979;DHT22;28616;44.746;19.678;2022-12-11T07:54:20;3.50;99.90
42979;DHT22;28616;44.746;19.678;2022-12-11T07:56:47;3.50;99.90
42979;DHT22;28616;44.746;19.678;2022-12-11T07:59:14;3.50;99.90
42979;DHT22;28616;44.746;19.678;2022-12-11T08:01:41;3.50;99.90
42979;DHT22;28616;44.746;19.678;2022-12-11T08:04:10;3.50;99.90
42979;DHT22;28616;44.746;19.678;2022-12-11T08:06:37;3.60;99.90
42979;DHT22;28616;44.746;19.678;2022-12-11T08:09:06;3.60;99.90
42979;DHT22;28616;44.746;19.678;2022-12-11T08:11:32;3.60;99.90
42979;DHT22;28616;44.746;19.678;2022-12-11T08:13:59;3.60;99.90
42979;DHT22;28616;44.746;19.678;2022-12-11T08:16:25;3.60;99.90
42979;DHT22;28616;44.746;19.678;2022-12-11T08:18:51;3.70;99.90
42979;DHT22;28616;44.746;19.678;2022-12-11T08:21:20;3.70;99.90
42979;DHT22;28616;44.746;19.678;2022-12-11T08:23:46;3.80;99.90
42979;DHT22;28616;44.746;19.678;2022-12-11T08:26:21;3.80;99.90
42979;DHT22;28616;44.746;19.678;2022-12-11T08:28:47;3.90;99.90
42979;DHT22;28616;44.746;19.678;2022-12-11T08:31:14;3.90;99.90
42979;DHT22;28616;44.746;19.678;2022-12-11T08:33:40;3.90;99.90
42979;DHT22;28616;44.746;19.678;2022-12-11T08:36:09;4.00;99.90
42979;DHT22;28616;44.746;19.678;2022-12-11T08:38:35;4.00;99.90
42979;DHT22;28616;44.746;19.678;2022-12-11T08:41:12;4.00;99.90
42979;DHT22;28616;44.746;19.678;2022-12-11T08:43:38;4.10;99.90
42979;DHT22;28616;44.746;19.678;2022-12-11T08:46:04;4.00;99.90
42979;DHT22;28616;44.746;19.678;2022-12-11T08:48:32;4.10;99.90
42979;DHT22;28616;44.746;19.678;2022-12-11T08:51:00;4.10;99.90
42979;DHT22;28616;44.746;19.678;2022-12-11T08:53:30;4.20;99.90
42979;DHT22;28616;44.746;19.678;2022-12-11T08:56:09;4.20;99.90
42979;DHT22;28616;44.746;19.678;2022-12-11T08:58:36;4.20;99.90
42979;DHT22;28616;44.746;19.678;2022-12-11T09:01:10;4.20;99.90
42979;DHT22;28616;44.746;19.678;2022-12-11T09:03:37;4.20;99.90
42979;DHT22;28616;44.746;19.678;2022-12-11T09:06:09;4.20;99.90
42979;DHT22;28616;44.746;19.678;2022-12-11T09:08:35;4.10;99.90
42979;DHT22;28616;44.746;19.678;2022-12-11T09:11:06;4.10;99.90
42979;DHT22;28616;44.746;19.678;2022-12-11T09:13:32;4.20;99.90
42979;DHT22;28616;44.746;19.678;2022-12-11T09:15:58;4.30;99.90
42979;DHT22;28616;44.746;19.678;2022-12-11T09:18:24;4.30;99.90
42979;DHT22;28616;44.746;19.678;2022-12-11T09:21:11;4.40;99.90
42979;DHT22;28616;44.746;19.678;2022-12-11T09:23:41;4.40;99.90
42979;DHT22;28616;44.746;19.678;2022-12-11T09:26:10;4.40;99.90
42979;DHT22;28616;44.746;19.678;2022-12-11T09:28:37;4.40;99.90
42979;DHT22;28616;44.746;19.678;2022-12-11T09:31:10;4.40;99.90
42979;DHT22;28616;44.746;19.678;2022-12-11T09:33:36;4.50;99.90
42979;DHT22;28616;44.746;19.678;2022-12-11T09:36:02;4.60;99.90
42979;DHT22;28616;44.746;19.678;2022-12-11T09:38:30;4.60;99.90
42979;DHT22;28616;44.746;19.678;2022-12-11T09:40:56;4.60;99.90
42979;DHT22;28616;44.746;19.678;2022-12-11T09:46:09;4.60;99.90
42979;DHT22;28616;44.746;19.678;2022-12-11T09:48:36;4.50;99.90
42979;DHT22;28616;44.746;19.678;2022-12-11T09:51:13;4.50;99.90
42979;DHT22;28616;44.746;19.678;2022-12-11T09:53:43;4.60;99.90
42979;DHT22;28616;44.746;19.678;2022-12-11T10:02:48;5.20;99.90
42979;DHT22;28616;44.746;19.678;2022-12-11T10:07:39;5.00;99.90
42979;DHT22;28616;44.746;19.678;2022-12-11T10:15:53;4.70;99.90
42979;DHT22;28616;44.746;19.678;2022-12-11T10:18:23;4.70;99.90
42979;DHT22;28616;44.746;19.678;2022-12-11T10:20:52;4.60;99.90
42979;DHT22;28616;44.746;19.678;2022-12-11T10:23:33;4.60;99.90
42979;DHT22;28616;44.746;19.678;2022-12-11T10:26:18;4.60;99.90
42979;DHT22;28616;44.746;19.678;2022-12-11T10:28:45;4.60;99.90
42979;DHT22;28616;44.746;19.678;2022-12-11T10:34:10;4.60;99.90
42979;DHT22;28616;44.746;19.678;2022-12-11T10:36:39;4.50;99.90
42979;DHT22;28616;44.746;19.678;2022-12-11T10:39:17;4.50;99.90
42979;DHT22;28616;44.746;19.678;2022-12-11T10:41:45;4.40;99.90
42979;DHT22;28616;44.746;19.678;2022-12-11T10:44:19;4.40;99.90
42979;DHT22;28616;44.746;19.678;2022-12-11T10:49:32;4.40;99.90
42979;DHT22;28616;44.746;19.678;2022-12-11T10:51:59;4.50;99.90
42979;DHT22;28616;44.746;19.678;2022-12-11T10:54:41;4.50;99.90
42979;DHT22;28616;44.746;19.678;2022-12-11T10:57:08;4.50;99.90
42979;DHT22;28616;44.746;19.678;2022-12-11T10:59:48;4.50;99.90
42979;DHT22;28616;44.746;19.678;2022-12-11T11:04:46;4.50;99.90
42979;DHT22;28616;44.746;19.678;2022-12-11T11:09:42;4.50;99.90
42979;DHT22;28616;44.746;19.678;2022-12-11T11:12:24;4.40;99.90
42979;DHT22;28616;44.746;19.678;2022-12-11T11:15:27;4.50;99.90
42979;DHT22;28616;44.746;19.678;2022-12-11T11:17:54;4.40;99.90
42979;DHT22;28616;44.746;19.678;2022-12-11T11:20:25;4.50;99.90
42979;DHT22;28616;44.746;19.678;2022-12-11T11:22:57;4.50;99.90
42979;DHT22;28616;44.746;19.678;2022-12-11T11:25:26;4.50;99.90
42979;DHT22;28616;44.746;19.678;2022-12-11T11:28:03;4.40;99.90
42979;DHT22;28616;44.746;19.678;2022-12-11T11:30:37;4.40;99.90
42979;DHT22;28616;44.746;19.678;2022-12-11T11:33:12;4.40;99.90
42979;DHT22;28616;44.746;19.678;2022-12-11T11:35:49;4.40;99.90
42979;DHT22;28616;44.746;19.678;2022-12-11T11:38:18;4.40;99.90
42979;DHT22;28616;44.746;19.678;2022-12-11T11:46:29;4.40;99.90
42979;DHT22;28616;44.746;19.678;2022-12-11T11:55:07;4.50;99.90
42979;DHT22;28616;44.746;19.678;2022-12-11T11:57:52;4.50;99.90
42979;DHT22;28616;44.746;19.678;2022-12-11T12:00:22;4.50;99.90
42979;DHT22;28616;44.746;19.678;2022-12-11T12:02:53;4.50;99.90
42979;DHT22;28616;44.746;19.678;2022-12-11T12:05:27;4.50;99.90
42979;DHT22;28616;44.746;19.678;2022-12-11T12:08:21;4.50;99.90
42979;DHT22;28616;44.746;19.678;2022-12-11T12:11:32;4.50;99.90
42979;DHT22;28616;44.746;19.678;2022-12-11T12:19:54;4.50;99.90
42979;DHT22;28616;44.746;19.678;2022-12-11T12:22:45;4.50;99.90
42979;DHT22;28616;44.746;19.678;2022-12-11T12:30:41;4.50;99.90
42979;DHT22;28616;44.746;19.678;2022-12-11T12:37:17;4.50;99.90
42979;DHT22;28616;44.746;19.678;2022-12-11T12:42:07;4.40;99.90
42979;DHT22;28616;44.746;19.678;2022-12-11T12:44:58;4.40;99.90
42979;DHT22;28616;44.746;19.678;2022-12-11T12:47:27;4.40;99.90
42979;DHT22;28616;44.746;19.678;2022-12-11T12:49:53;4.40;99.90
42979;DHT22;28616;44.746;19.678;2022-12-11T12:52:24;4.40;99.90
42979;DHT22;28616;44.746;19.678;2022-12-11T12:54:55;4.40;99.90
42979;DHT22;28616;44.746;19.678;2022-12-11T13:00:26;4.40;99.90
42979;DHT22;28616;44.746;19.678;2022-12-11T13:02:53;4.50;99.90
42979;DHT22;28616;44.746;19.678;2022-12-11T13:05:26;4.50;99.90
42979;DHT22;28616;44.746;19.678;2022-12-11T13:07:56;4.50;99.90
42979;DHT22;28616;44.746;19.678;2022-12-11T13:10:34;4.50;99.90
42979;DHT22;28616;44.746;19.678;2022-12-11T13:13:02;4.50;99.90
42979;DHT22;28616;44.746;19.678;2022-12-11T13:15:38;4.60;99.90
42979;DHT22;28616;44.746;19.678;2022-12-11T13:21:00;4.60;99.90
42979;DHT22;28616;44.746;19.678;2022-12-11T13:23:33;4.60;99.90
42979;DHT22;28616;44.746;19.678;2022-12-11T13:26:01;4.50;99.90
42979;DHT22;28616;44.746;19.678;2022-12-11T13:28:32;4.50;99.90
42979;DHT22;28616;44.746;19.678;2022-12-11T13:31:05;4.50;99.90
42979;DHT22;28616;44.746;19.678;2022-12-11T13:33:39;4.50;99.90
42979;DHT22;28616;44.746;19.678;2022-12-11T13:38:36;4.50;99.90
42979;DHT22;28616;44.746;19.678;2022-12-11T13:41:03;4.50;99.90
42979;DHT22;28616;44.746;19.678;2022-12-11T13:43:32;4.40;99.90
42979;DHT22;28616;44.746;19.678;2022-12-11T13:46:01;4.40;99.90
42979;DHT22;28616;44.746;19.678;2022-12-11T13:48:46;4.50;99.90
42979;DHT22;28616;44.746;19.678;2022-12-11T13:51:16;4.50;99.90
42979;DHT22;28616;44.746;19.678;2022-12-11T13:53:43;4.40;99.90
42979;DHT22;28616;44.746;19.678;2022-12-11T13:56:21;4.40;99.90
42979;DHT22;28616;44.746;19.678;2022-12-11T13:58:47;4.40;99.90
42979;DHT22;28616;44.746;19.678;2022-12-11T14:01:19;4.40;99.90
42979;DHT22;28616;44.746;19.678;2022-12-11T14:03:54;4.40;99.90
42979;DHT22;28616;44.746;19.678;2022-12-11T14:06:21;4.50;99.90
42979;DHT22;28616;44.746;19.678;2022-12-11T14:08:50;4.50;99.90
42979;DHT22;28616;44.746;19.678;2022-12-11T14:11:22;4.50;99.90
42979;DHT22;28616;44.746;19.678;2022-12-11T14:13:49;4.50;99.90
42979;DHT22;28616;44.746;19.678;2022-12-11T14:16:23;4.50;99.90
42979;DHT22;28616;44.746;19.678;2022-12-11T14:18:49;4.50;99.90
42979;DHT22;28616;44.746;19.678;2022-12-11T14:21:19;4.40;99.90
42979;DHT22;28616;44.746;19.678;2022-12-11T14:23:55;4.40;99.90
42979;DHT22;28616;44.746;19.678;2022-12-11T14:26:23;4.40;99.90
42979;DHT22;28616;44.746;19.678;2022-12-11T14:28:50;4.40;99.90
42979;DHT22;28616;44.746;19.678;2022-12-11T14:33:56;4.40;99.90
42979;DHT22;28616;44.746;19.678;2022-12-11T14:36:23;4.40;99.90
42979;DHT22;28616;44.746;19.678;2022-12-11T14:38:56;4.40;99.90
42979;DHT22;28616;44.746;19.678;2022-12-11T14:44:15;4.40;99.90
42979;DHT22;28616;44.746;19.678;2022-12-11T14:46:45;4.40;99.90
42979;DHT22;28616;44.746;19.678;2022-12-11T14:49:27;4.40;99.90
42979;DHT22;28616;44.746;19.678;2022-12-11T14:51:57;4.40;99.90
42979;DHT22;28616;44.746;19.678;2022-12-11T14:54:38;4.30;99.90
42979;DHT22;28616;44.746;19.678;2022-12-11T14:57:06;4.30;99.90
42979;DHT22;28616;44.746;19.678;2022-12-11T14:59:40;4.30;99.90
42979;DHT22;28616;44.746;19.678;2022-12-11T15:02:27;4.30;99.90
42979;DHT22;28616;44.746;19.678;2022-12-11T15:07:33;4.30;99.90
42979;DHT22;28616;44.746;19.678;2022-12-11T15:09:59;4.30;99.90
42979;DHT22;28616;44.746;19.678;2022-12-11T15:12:24;4.30;99.90
42979;DHT22;28616;44.746;19.678;2022-12-11T15:14:57;4.30;99.90
42979;DHT22;28616;44.746;19.678;2022-12-11T15:17:26;4.30;99.90
42979;DHT22;28616;44.746;19.678;2022-12-11T15:19:56;4.30;99.90
42979;DHT22;28616;44.746;19.678;2022-12-11T15:22:29;4.30;99.90
42979;DHT22;28616;44.746;19.678;2022-12-11T15:24:56;4.20;99.90
42979;DHT22;28616;44.746;19.678;2022-12-11T15:27:43;4.20;99.90
42979;DHT22;28616;44.746;19.678;2022-12-11T15:33:04;4.20;99.90
42979;DHT22;28616;44.746;19.678;2022-12-11T15:35:55;4.20;99.90
42979;DHT22;28616;44.746;19.678;2022-12-11T15:38:39;4.20;99.90
42979;DHT22;28616;44.746;19.678;2022-12-11T15:41:16;4.20;99.90
42979;DHT22;28616;44.746;19.678;2022-12-11T15:43:43;4.20;99.90
42979;DHT22;28616;44.746;19.678;2022-12-11T15:46:09;4.20;99.90
42979;DHT22;28616;44.746;19.678;2022-12-11T15:48:35;4.20;99.90
42979;DHT22;28616;44.746;19.678;2022-12-11T15:51:00;4.20;99.90
42979;DHT22;28616;44.746;19.678;2022-12-11T15:53:28;4.20;99.90
42979;DHT22;28616;44.746;19.678;2022-12-11T15:55:54;4.20;99.90
42979;DHT22;28616;44.746;19.678;2022-12-11T15:58:22;4.20;99.90
42979;DHT22;28616;44.746;19.678;2022-12-11T16:00:49;4.20;99.90
42979;DHT22;28616;44.746;19.678;2022-12-11T16:03:18;4.20;99.90
42979;DHT22;28616;44.746;19.678;2022-12-11T16:05:44;4.20;99.90
42979;DHT22;28616;44.746;19.678;2022-12-11T16:08:16;4.20;99.90
42979;DHT22;28616;44.746;19.678;2022-12-11T16:10:43;4.30;99.90
42979;DHT22;28616;44.746;19.678;2022-12-11T16:13:10;4.20;99.90
42979;DHT22;28616;44.746;19.678;2022-12-11T16:15:38;4.20;99.90
42979;DHT22;28616;44.746;19.678;2022-12-11T16:18:06;4.20;99.90
42979;DHT22;28616;44.746;19.678;2022-12-11T16:20:34;4.20;99.90
42979;DHT22;28616;44.746;19.678;2022-12-11T16:23:00;4.20;99.90
42979;DHT22;28616;44.746;19.678;2022-12-11T16:25:26;4.20;99.90
42979;DHT22;28616;44.746;19.678;2022-12-11T16:27:57;4.20;99.90
42979;DHT22;28616;44.746;19.678;2022-12-11T16:30:24;4.20;99.90
42979;DHT22;28616;44.746;19.678;2022-12-11T16:32:50;4.20;99.90
42979;DHT22;28616;44.746;19.678;2022-12-11T16:35:16;4.20;99.90
42979;DHT22;28616;44.746;19.678;2022-12-11T16:37:43;4.20;99.90
42979;DHT22;28616;44.746;19.678;2022-12-11T16:40:09;4.20;99.90
42979;DHT22;28616;44.746;19.678;2022-12-11T16:42:37;4.20;99.90
42979;DHT22;28616;44.746;19.678;2022-12-11T16:45:05;4.20;99.90
42979;DHT22;28616;44.746;19.678;2022-12-11T16:47:31;4.20;99.90
42979;DHT22;28616;44.746;19.678;2022-12-11T16:49:57;4.20;99.90
42979;DHT22;28616;44.746;19.678;2022-12-11T16:52:23;4.20;99.90
42979;DHT22;28616;44.746;19.678;2022-12-11T16:54:49;4.20;99.90
42979;DHT22;28616;44.746;19.678;2022-12-11T16:57:15;4.20;99.90
42979;DHT22;28616;44.746;19.678;2022-12-11T16:59:41;4.20;99.90
42979;DHT22;28616;44.746;19.678;2022-12-11T17:02:10;4.20;99.90
42979;DHT22;28616;44.746;19.678;2022-12-11T17:04:37;4.10;99.90
42979;DHT22;28616;44.746;19.678;2022-12-11T17:07:03;4.10;99.90
42979;DHT22;28616;44.746;19.678;2022-12-11T17:09:29;4.20;99.90
42979;DHT22;28616;44.746;19.678;2022-12-11T17:11:55;4.20;99.90
42979;DHT22;28616;44.746;19.678;2022-12-11T17:14:21;4.20;99.90
42979;DHT22;28616;44.746;19.678;2022-12-11T17:16:47;4.20;99.90
42979;DHT22;28616;44.746;19.678;2022-12-11T17:19:13;4.20;99.90
42979;DHT22;28616;44.746;19.678;2022-12-11T17:21:39;4.20;99.90
42979;DHT22;28616;44.746;19.678;2022-12-11T17:24:06;4.20;99.90